createdAt,value
2018-08-06T00:02:05.354Z,20.70
2018-08-06T00:04:32.827Z,20.80
2018-08-06T00:07:00.283Z,21.10
2018-08-06T00:09:27.735Z,21.10
2018-08-06T00:11:55.206Z,20.80
2018-08-06T00:14:22.661Z,21.00
2018-08-06T00:16:50.123Z,20.70
2018-08-06T00:19:17.601Z,20.60
2018-08-06T00:21:46.570Z,20.60
2018-08-06T00:24:14.053Z,20.60
2018-08-06T00:26:41.508Z,20.40
2018-08-06T00:29:09.034Z,20.30
2018-08-06T00:31:36.532Z,20.50
2018-08-06T00:34:04.098Z,20.60
2018-08-06T00:36:31.664Z,20.70
2018-08-06T00:38:59.120Z,20.80
2018-08-06T00:41:26.689Z,20.90
2018-08-06T00:43:54.136Z,20.70
2018-08-06T00:46:21.619Z,20.60
2018-08-06T00:48:49.181Z,20.70
2018-08-06T00:51:16.738Z,20.70
2018-08-06T00:53:44.309Z,20.60
2018-08-06T00:56:11.777Z,20.70
2018-08-06T00:58:39.219Z,20.70
2018-08-06T01:01:06.807Z,20.90
2018-08-06T01:03:34.282Z,21.00
2018-08-06T01:06:01.825Z,20.80
2018-08-06T01:08:29.388Z,20.40
2018-08-06T01:10:56.955Z,20.40
2018-08-06T01:13:24.509Z,20.40
2018-08-06T01:15:51.960Z,20.50
2018-08-06T01:18:19.431Z,20.20
2018-08-06T01:20:47.003Z,20.00
2018-08-06T01:23:14.528Z,20.00
2018-08-06T01:25:41.985Z,20.10
2018-08-06T01:28:09.435Z,20.50
2018-08-06T01:30:37.776Z,20.30
2018-08-06T01:33:05.222Z,20.30
2018-08-06T01:35:32.692Z,20.50
2018-08-06T01:38:00.263Z,20.40
2018-08-06T01:40:27.722Z,20.20
2018-08-06T01:42:55.181Z,20.20
2018-08-06T01:45:22.642Z,20.10
2018-08-06T01:47:50.089Z,20.20
2018-08-06T01:50:17.569Z,20.20
2018-08-06T01:52:45.020Z,20.20
2018-08-06T01:55:12.491Z,20.20
2018-08-06T01:57:40.063Z,20.00
2018-08-06T02:00:07.533Z,20.00
2018-08-06T02:02:34.996Z,19.70
2018-08-06T02:05:02.435Z,19.90
2018-08-06T02:07:29.902Z,19.90
2018-08-06T02:09:57.356Z,20.00
2018-08-06T02:12:24.821Z,19.90
2018-08-06T02:14:52.298Z,19.90
2018-08-06T02:17:19.852Z,19.90
2018-08-06T02:19:47.316Z,19.90
2018-08-06T02:22:14.885Z,19.80
2018-08-06T02:24:42.336Z,19.90
2018-08-06T02:27:09.802Z,19.70
2018-08-06T02:29:37.279Z,19.80
2018-08-06T02:32:04.839Z,19.60
2018-08-06T02:34:32.405Z,19.80
2018-08-06T02:36:59.864Z,20.40
2018-08-06T02:39:27.316Z,20.10
2018-08-06T02:41:54.882Z,19.90
2018-08-06T02:44:22.339Z,19.90
2018-08-06T02:46:49.808Z,19.70
2018-08-06T02:49:17.283Z,19.50
2018-08-06T02:51:46.239Z,19.80
2018-08-06T02:54:13.699Z,19.80
2018-08-06T02:56:41.156Z,19.80
2018-08-06T02:59:08.623Z,19.80
2018-08-06T03:01:36.119Z,19.80
2018-08-06T03:04:03.681Z,19.80
2018-08-06T03:06:31.137Z,19.70
2018-08-06T03:08:58.709Z,19.90
2018-08-06T03:11:26.179Z,19.80
2018-08-06T03:13:53.637Z,19.70
2018-08-06T03:16:21.195Z,19.60
2018-08-06T03:18:48.767Z,19.80
2018-08-06T03:21:16.325Z,19.60
2018-08-06T03:23:43.789Z,19.50
2018-08-06T03:26:11.257Z,19.60
2018-08-06T03:28:38.809Z,19.20
2018-08-06T03:31:06.280Z,19.10
2018-08-06T03:33:33.730Z,19.30
2018-08-06T03:36:01.206Z,19.30
2018-08-06T03:38:28.778Z,19.40
2018-08-06T03:40:56.329Z,19.40
2018-08-06T03:43:23.887Z,19.30
2018-08-06T03:45:51.351Z,19.40
2018-08-06T03:48:18.816Z,19.50
2018-08-06T03:50:46.270Z,19.30
2018-08-06T03:53:13.743Z,19.10
2018-08-06T03:55:41.195Z,19.20
2018-08-06T03:58:08.775Z,19.20
2018-08-06T04:00:37.007Z,19.10
2018-08-06T04:03:04.464Z,19.10
2018-08-06T04:05:31.972Z,19.10
2018-08-06T04:07:59.434Z,19.20
2018-08-06T04:10:26.893Z,19.30
2018-08-06T04:12:54.347Z,19.30
2018-08-06T04:15:21.808Z,19.30
2018-08-06T04:17:49.265Z,19.20
2018-08-06T04:20:16.721Z,18.90
2018-08-06T04:22:44.167Z,19.00
2018-08-06T04:25:11.627Z,19.00
2018-08-06T04:27:39.082Z,19.10
2018-08-06T04:30:06.540Z,19.10
2018-08-06T04:32:33.994Z,19.10
2018-08-06T04:35:02.230Z,19.20
2018-08-06T04:37:29.691Z,19.20
2018-08-06T04:39:57.158Z,19.00
2018-08-06T04:42:24.713Z,18.90
2018-08-06T04:44:52.166Z,18.80
2018-08-06T04:47:19.639Z,18.90
2018-08-06T04:49:47.098Z,18.90
2018-08-06T04:52:14.594Z,18.90
2018-08-06T04:54:42.043Z,19.00
2018-08-06T04:57:09.507Z,19.00
2018-08-06T04:59:38.514Z,19.20
2018-08-06T05:02:05.953Z,19.20
2018-08-06T05:04:33.516Z,19.10
2018-08-06T05:07:01.058Z,19.50
2018-08-06T05:09:29.255Z,19.30
2018-08-06T05:11:56.715Z,19.30
2018-08-06T05:14:24.208Z,19.20
2018-08-06T05:16:51.682Z,19.10
2018-08-06T05:19:19.920Z,19.10
2018-08-06T05:21:47.384Z,19.10
2018-08-06T05:24:14.848Z,19.00
2018-08-06T05:26:42.307Z,20.30
2018-08-06T05:29:09.875Z,20.80
2018-08-06T05:31:37.335Z,21.00
2018-08-06T05:34:04.800Z,21.10
2018-08-06T05:36:32.360Z,21.10
2018-08-06T05:38:59.942Z,21.10
2018-08-06T05:41:27.498Z,21.10
2018-08-06T05:43:54.960Z,21.10
2018-08-06T05:46:22.421Z,21.10
2018-08-06T05:48:50.016Z,21.00
2018-08-06T05:51:17.444Z,21.00
2018-08-06T05:53:44.916Z,21.00
2018-08-06T05:56:12.380Z,21.00
2018-08-06T05:58:39.845Z,21.00
2018-08-06T06:01:07.296Z,20.60
2018-08-06T06:03:34.755Z,20.20
2018-08-06T06:06:02.219Z,20.00
2018-08-06T06:08:29.777Z,19.90
2018-08-06T06:10:57.244Z,20.00
2018-08-06T06:13:24.717Z,20.00
2018-08-06T06:15:52.283Z,20.10
2018-08-06T06:18:19.766Z,20.20
2018-08-06T06:20:48.013Z,20.40
2018-08-06T06:23:15.481Z,20.30
2018-08-06T06:25:43.067Z,20.50
2018-08-06T06:28:10.516Z,20.50
2018-08-06T06:30:37.988Z,20.70
2018-08-06T06:33:05.447Z,20.80
2018-08-06T06:35:33.663Z,21.00
2018-08-06T06:38:01.136Z,21.00
2018-08-06T06:40:28.595Z,21.20
2018-08-06T06:42:56.058Z,21.30
2018-08-06T06:45:24.639Z,21.50
2018-08-06T06:47:52.149Z,21.40
2018-08-06T06:50:19.606Z,21.70
2018-08-06T06:52:47.069Z,21.70
2018-08-06T06:55:14.514Z,21.80
2018-08-06T06:57:41.983Z,21.90
2018-08-06T07:00:09.515Z,22.00
2018-08-06T07:02:37.075Z,22.00
2018-08-06T07:05:04.611Z,22.10
2018-08-06T07:07:32.826Z,22.40
2018-08-06T07:10:00.284Z,22.30
2018-08-06T07:12:27.753Z,22.50
2018-08-06T07:14:55.276Z,22.70
2018-08-06T07:17:23.526Z,22.70
2018-08-06T07:19:51.091Z,22.70
2018-08-06T07:22:18.657Z,22.80
2018-08-06T07:24:46.225Z,22.70
2018-08-06T07:27:13.687Z,22.80
2018-08-06T07:29:41.139Z,22.80
2018-08-06T07:32:08.607Z,22.80
2018-08-06T07:34:36.077Z,22.90
2018-08-06T07:37:03.638Z,23.00
2018-08-06T07:39:31.196Z,23.20
2018-08-06T07:41:58.672Z,23.30
2018-08-06T07:44:27.635Z,23.50
2018-08-06T07:46:55.102Z,23.40
2018-08-06T07:49:22.615Z,23.50
2018-08-06T07:51:50.051Z,23.50
2018-08-06T07:54:17.520Z,23.70
2018-08-06T07:56:44.988Z,23.70
2018-08-06T07:59:13.244Z,23.90
2018-08-06T08:01:40.692Z,23.90
2018-08-06T08:04:08.156Z,24.00
2018-08-06T08:06:35.633Z,24.20
2018-08-06T08:09:03.091Z,24.20
2018-08-06T08:11:30.559Z,24.30
2018-08-06T08:13:58.021Z,24.30
2018-08-06T08:16:25.482Z,24.20
2018-08-06T08:18:52.940Z,24.30
2018-08-06T08:21:20.513Z,24.50
2018-08-06T08:23:47.960Z,24.40
2018-08-06T08:26:15.437Z,24.40
2018-08-06T08:28:43.007Z,24.60
2018-08-06T08:31:11.611Z,25.10
2018-08-06T08:33:39.863Z,25.20
2018-08-06T08:36:07.329Z,25.20
2018-08-06T08:38:34.811Z,25.10
2018-08-06T08:41:03.036Z,25.30
2018-08-06T08:43:30.503Z,25.30
2018-08-06T08:45:57.995Z,25.30
2018-08-06T08:48:25.460Z,25.50
2018-08-06T08:50:53.060Z,25.80
2018-08-06T08:53:21.294Z,25.90
2018-08-06T08:55:48.860Z,25.90
2018-08-06T08:58:16.337Z,25.90
2018-08-06T09:00:43.792Z,25.80
2018-08-06T09:03:11.362Z,25.80
2018-08-06T09:05:38.816Z,25.80
2018-08-06T09:08:07.878Z,26.10
2018-08-06T09:10:35.325Z,26.10
2018-08-06T09:13:03.651Z,26.20
2018-08-06T09:18:00.698Z,26.60
2018-08-06T09:20:29.733Z,26.30
2018-08-06T09:22:57.293Z,26.40
2018-08-06T09:30:23.507Z,26.20
2018-08-06T09:35:21.358Z,26.50
2018-08-06T09:37:49.960Z,26.70
2018-08-06T09:40:18.982Z,26.80
2018-08-06T09:42:47.238Z,26.90
2018-08-06T09:45:15.919Z,26.90
2018-08-06T09:47:43.485Z,26.90
2018-08-06T09:50:11.062Z,26.90
2018-08-06T09:52:39.287Z,27.00
2018-08-06T09:55:06.748Z,26.90
2018-08-06T09:57:34.206Z,26.90
2018-08-06T10:00:02.842Z,27.10
2018-08-06T10:02:31.547Z,27.30
2018-08-06T10:05:00.218Z,27.40
2018-08-06T10:07:27.680Z,27.40
2018-08-06T10:09:55.243Z,27.40
2018-08-06T10:12:22.708Z,27.20
2018-08-06T10:14:50.268Z,27.00
2018-08-06T10:17:17.840Z,27.20
2018-08-06T10:19:46.460Z,27.30
2018-08-06T10:22:14.719Z,27.50
2018-08-06T10:24:42.266Z,27.40
2018-08-06T10:27:10.917Z,27.70
2018-08-06T10:32:07.228Z,28.00
2018-08-06T10:34:36.198Z,28.00
2018-08-06T10:37:03.677Z,28.00
2018-08-06T10:39:31.231Z,28.10
2018-08-06T10:41:58.801Z,28.10
2018-08-06T10:44:26.244Z,27.80
2018-08-06T10:46:53.711Z,27.60
2018-08-06T10:49:21.183Z,28.00
2018-08-06T10:51:48.649Z,28.40
2018-08-06T10:54:17.252Z,27.80
2018-08-06T10:56:45.482Z,27.90
2018-08-06T10:59:12.991Z,27.90
2018-08-06T11:01:40.443Z,28.30
2018-08-06T11:04:07.911Z,28.40
2018-08-06T11:06:36.561Z,28.50
2018-08-06T11:09:04.764Z,28.70
2018-08-06T11:11:32.251Z,28.60
2018-08-06T11:14:00.524Z,28.60
2018-08-06T11:16:27.959Z,28.60
2018-08-06T11:18:55.504Z,28.80
2018-08-06T11:21:22.952Z,28.80
2018-08-06T11:23:51.183Z,28.70
2018-08-06T11:26:18.657Z,28.60
2018-08-06T11:28:46.104Z,29.00
2018-08-06T11:31:13.559Z,28.80
2018-08-06T11:33:41.047Z,28.80
2018-08-06T11:36:08.501Z,28.60
2018-08-06T11:38:36.063Z,28.60
2018-08-06T11:41:03.548Z,28.60
2018-08-06T11:43:31.089Z,28.50
2018-08-06T11:45:58.554Z,28.90
2018-08-06T11:48:26.107Z,29.20
2018-08-06T11:50:53.891Z,29.30
2018-08-06T11:55:50.247Z,29.20
2018-08-06T11:58:17.710Z,29.00
2018-08-06T12:00:46.136Z,29.20
2018-08-06T12:03:13.605Z,29.20
2018-08-06T12:05:42.716Z,28.70
2018-08-06T12:08:10.210Z,28.70
2018-08-06T12:10:37.661Z,28.70
2018-08-06T12:13:05.122Z,28.70
2018-08-06T12:15:32.591Z,29.10
2018-08-06T12:18:00.065Z,29.00
2018-08-06T12:20:28.660Z,29.00
2018-08-06T12:22:57.623Z,29.00
2018-08-06T12:25:25.103Z,29.00
2018-08-06T12:27:52.574Z,29.10
2018-08-06T12:30:20.143Z,29.30
2018-08-06T12:32:47.616Z,29.50
2018-08-06T12:35:16.491Z,29.90
2018-08-06T12:37:43.940Z,29.80
2018-08-06T12:40:11.413Z,29.90
2018-08-06T12:42:38.974Z,30.10
2018-08-06T12:45:06.559Z,29.90
2018-08-06T12:47:34.003Z,29.90
2018-08-06T12:50:01.469Z,29.90
2018-08-06T12:52:28.929Z,29.70
2018-08-06T12:54:56.387Z,29.60
2018-08-06T12:57:23.855Z,29.40
2018-08-06T12:59:51.334Z,29.30
2018-08-06T13:02:20.315Z,29.40
2018-08-06T13:04:47.780Z,29.40
2018-08-06T13:07:15.242Z,29.30
2018-08-06T13:09:42.691Z,29.40
2018-08-06T13:12:10.150Z,29.40
2018-08-06T13:14:37.612Z,29.40
2018-08-06T13:17:05.072Z,29.60
2018-08-06T13:19:32.554Z,29.60
2018-08-06T13:22:00.120Z,29.60
2018-08-06T13:24:28.703Z,29.70
2018-08-06T13:26:56.160Z,29.70
2018-08-06T13:29:23.723Z,29.90
2018-08-06T13:31:52.426Z,29.90
2018-08-06T13:34:19.880Z,29.90
2018-08-06T13:36:47.458Z,29.90
2018-08-06T13:39:14.921Z,29.80
2018-08-06T13:41:42.383Z,29.70
2018-08-06T13:44:09.932Z,29.70
2018-08-06T13:46:37.404Z,29.80
2018-08-06T13:49:06.092Z,30.20
2018-08-06T13:51:34.314Z,30.20
2018-08-06T13:56:30.592Z,30.30
2018-08-06T13:58:59.245Z,30.40
2018-08-06T14:01:26.676Z,30.40
2018-08-06T14:03:54.148Z,30.40
2018-08-06T14:06:21.699Z,30.20
2018-08-06T14:08:49.263Z,30.20
2018-08-06T14:11:16.882Z,30.30
2018-08-06T14:13:44.315Z,30.30
2018-08-06T14:16:12.553Z,30.40
2018-08-06T14:18:40.016Z,30.40
2018-08-06T14:21:07.464Z,30.40
2018-08-06T14:23:34.968Z,30.40
2018-08-06T14:26:03.641Z,30.50
2018-08-06T14:28:31.827Z,30.50
2018-08-06T14:30:59.279Z,30.50
2018-08-06T14:33:26.761Z,30.80
2018-08-06T14:35:54.222Z,30.70
2018-08-06T14:38:21.680Z,30.70
2018-08-06T14:40:49.239Z,30.70
2018-08-06T14:43:16.808Z,30.70
2018-08-06T14:45:45.403Z,30.90
2018-08-06T14:48:12.867Z,30.90
2018-08-06T14:50:40.327Z,30.90
2018-08-06T14:53:07.795Z,31.00
2018-08-06T14:55:35.252Z,31.00
2018-08-06T14:58:02.714Z,30.90
2018-08-06T15:00:30.179Z,30.90
2018-08-06T15:02:57.746Z,31.00
2018-08-06T15:05:25.964Z,31.10
2018-08-06T15:07:53.422Z,31.10
2018-08-06T15:10:20.884Z,31.30
2018-08-06T15:12:48.356Z,31.30
2018-08-06T15:15:15.892Z,31.30
2018-08-06T15:17:43.298Z,31.30
2018-08-06T15:20:10.761Z,31.40
2018-08-06T15:22:38.228Z,31.40
2018-08-06T15:25:05.707Z,31.30
2018-08-06T15:27:33.171Z,31.40
2018-08-06T15:30:00.735Z,31.30
2018-08-06T15:32:28.201Z,31.40
2018-08-06T15:34:55.751Z,31.10
2018-08-06T15:37:23.282Z,31.10
2018-08-06T15:39:50.788Z,31.20
2018-08-06T15:42:18.251Z,31.20
2018-08-06T15:44:45.816Z,31.30
2018-08-06T15:47:13.286Z,31.40
2018-08-06T15:49:41.964Z,31.50
2018-08-06T15:52:09.529Z,31.50
2018-08-06T15:54:36.980Z,31.30
2018-08-06T15:57:04.442Z,31.30
2018-08-06T15:59:31.903Z,31.40
2018-08-06T16:01:59.387Z,31.40
2018-08-06T16:04:26.846Z,31.40
2018-08-06T16:06:54.321Z,31.40
2018-08-06T16:09:21.784Z,31.60
2018-08-06T16:11:49.251Z,31.60
2018-08-06T16:14:17.506Z,31.40
2018-08-06T16:16:47.361Z,31.40
2018-08-06T16:19:15.594Z,31.40
2018-08-06T16:21:43.074Z,31.30
2018-08-06T16:24:10.550Z,31.40
2018-08-06T16:26:38.947Z,31.40
2018-08-06T16:29:07.172Z,31.50
2018-08-06T16:31:35.204Z,31.50
2018-08-06T16:34:04.339Z,31.30
2018-08-06T16:36:31.797Z,31.30
2018-08-06T16:39:02.260Z,31.30
2018-08-06T16:41:29.752Z,31.20
2018-08-06T16:43:57.227Z,31.20
2018-08-06T16:46:26.932Z,31.10
2018-08-06T16:48:54.444Z,31.10
2018-08-06T16:51:22.016Z,31.30
2018-08-06T16:53:49.568Z,31.20
2018-08-06T16:56:17.031Z,31.10
2018-08-06T16:58:44.800Z,31.10
2018-08-06T17:01:12.288Z,31.10
2018-08-06T17:03:39.803Z,31.10
2018-08-06T17:06:07.781Z,31.00
2018-08-06T17:08:35.269Z,30.60
2018-08-06T17:11:04.018Z,30.60
2018-08-06T17:13:32.270Z,30.90
2018-08-06T17:16:00.447Z,30.90
2018-08-06T17:18:29.294Z,30.30
2018-08-06T17:20:56.754Z,30.20
2018-08-06T17:23:24.260Z,30.20
2018-08-06T17:25:51.717Z,30.10
2018-08-06T17:28:19.209Z,30.50
2018-08-06T17:30:48.840Z,30.60
2018-08-06T17:33:17.073Z,30.70
2018-08-06T17:35:46.671Z,30.70
2018-08-06T17:38:14.146Z,31.00
2018-08-06T17:40:41.623Z,30.90
2018-08-06T17:43:10.008Z,30.70
2018-08-06T17:45:37.520Z,30.60
2018-08-06T17:48:05.022Z,30.30
2018-08-06T17:50:32.589Z,30.50
2018-08-06T17:53:01.078Z,30.70
2018-08-06T17:55:28.560Z,30.70
2018-08-06T17:57:56.795Z,30.40
2018-08-06T18:00:24.264Z,30.40
2018-08-06T18:02:51.772Z,30.60
2018-08-06T18:05:19.325Z,30.60
2018-08-06T18:07:46.813Z,30.50
2018-08-06T18:10:14.303Z,30.40
2018-08-06T18:12:41.752Z,30.30
2018-08-06T18:15:09.223Z,30.30
2018-08-06T18:17:36.687Z,30.60
2018-08-06T18:20:04.138Z,30.60
2018-08-06T18:22:31.697Z,30.60
2018-08-06T18:24:59.153Z,30.60
2018-08-06T18:27:26.671Z,30.60
2018-08-06T18:29:55.643Z,30.40
2018-08-06T18:32:23.148Z,30.50
2018-08-06T18:34:50.607Z,30.50
2018-08-06T18:37:18.835Z,30.40
2018-08-06T18:39:46.288Z,30.40
2018-08-06T18:42:13.812Z,30.40
2018-08-06T18:44:41.269Z,30.30
2018-08-06T18:47:08.738Z,30.40
2018-08-06T18:49:36.191Z,30.30
2018-08-06T18:52:04.476Z,30.10
2018-08-06T18:54:33.555Z,29.40
2018-08-06T18:57:01.010Z,29.30
2018-08-06T18:59:28.459Z,29.50
2018-08-06T19:01:55.934Z,29.40
2018-08-06T19:04:23.394Z,29.70
2018-08-06T19:06:50.867Z,29.60
2018-08-06T19:09:18.320Z,29.70
2018-08-06T19:11:45.775Z,29.80
2018-08-06T19:14:17.115Z,29.80
2018-08-06T19:16:44.584Z,29.90
2018-08-06T19:19:17.626Z,30.00
2018-08-06T19:21:45.870Z,29.70
2018-08-06T19:24:13.325Z,29.70
2018-08-06T19:26:40.800Z,29.70
2018-08-06T19:29:08.244Z,29.70
2018-08-06T19:31:35.716Z,29.50
2018-08-06T19:34:03.192Z,29.40
2018-08-06T19:36:30.645Z,29.40
2018-08-06T19:38:58.101Z,29.40
2018-08-06T19:41:25.630Z,29.40
2018-08-06T19:43:53.098Z,29.30
2018-08-06T19:46:20.571Z,29.40
2018-08-06T19:48:48.063Z,29.10
2018-08-06T19:51:15.625Z,29.10
2018-08-06T19:53:43.903Z,29.10
2018-08-06T19:56:13.169Z,29.10
2018-08-06T19:58:40.634Z,29.10
2018-08-06T20:01:08.098Z,29.00
2018-08-06T20:03:35.599Z,28.90
2018-08-06T20:06:03.160Z,28.70
2018-08-06T20:08:30.734Z,28.80
2018-08-06T20:10:58.186Z,28.90
2018-08-06T20:13:25.641Z,28.80
2018-08-06T20:15:53.200Z,28.80
2018-08-06T20:18:20.683Z,28.30
2018-08-06T20:20:48.245Z,28.30
2018-08-06T20:23:15.805Z,28.60
2018-08-06T20:25:43.367Z,28.60
2018-08-06T20:28:10.823Z,28.20
2018-08-06T20:30:38.283Z,26.30
2018-08-06T20:33:05.738Z,24.70
2018-08-06T20:35:33.366Z,24.40
2018-08-06T20:38:00.785Z,24.40
2018-08-06T20:40:29.378Z,24.30
2018-08-06T20:42:56.845Z,24.20
2018-08-06T20:45:24.303Z,24.10
2018-08-06T20:47:51.889Z,23.70
2018-08-06T20:50:19.339Z,23.60
2018-08-06T20:52:46.801Z,23.60
2018-08-06T20:55:14.290Z,23.70
2018-08-06T20:57:41.813Z,23.80
2018-08-06T21:00:09.274Z,23.70
2018-08-06T21:02:37.680Z,23.90
2018-08-06T21:05:04.964Z,24.00
2018-08-06T21:07:32.436Z,23.90
2018-08-06T21:09:59.889Z,23.80
2018-08-06T21:12:27.344Z,23.70
2018-08-06T21:14:54.819Z,23.80
2018-08-06T21:17:22.281Z,23.60
2018-08-06T21:19:49.788Z,23.60
2018-08-06T21:22:17.344Z,23.60
2018-08-06T21:24:44.812Z,23.50
2018-08-06T21:27:12.381Z,23.50
2018-08-06T21:29:39.944Z,23.50
2018-08-06T21:32:07.513Z,23.50
2018-08-06T21:34:36.493Z,23.30
2018-08-06T21:37:03.952Z,23.30
2018-08-06T21:39:31.456Z,23.30
2018-08-06T21:41:58.887Z,23.30
2018-08-06T21:44:26.460Z,23.10
2018-08-06T21:46:54.022Z,23.10
2018-08-06T21:49:21.479Z,23.10
2018-08-06T21:51:48.932Z,23.10
2018-08-06T21:54:16.568Z,23.00
2018-08-06T21:56:44.069Z,23.00
2018-08-06T21:59:11.525Z,23.00
2018-08-06T22:01:40.112Z,22.80
2018-08-06T22:04:07.591Z,22.80
2018-08-06T22:06:35.865Z,22.80
2018-08-06T22:09:03.356Z,22.80
2018-08-06T22:11:31.575Z,22.80
2018-08-06T22:13:59.037Z,22.80
2018-08-06T22:16:26.540Z,22.80
2018-08-06T22:18:54.085Z,22.80
2018-08-06T22:21:22.275Z,22.60
2018-08-06T22:23:49.740Z,22.60
2018-08-06T22:26:17.194Z,22.60
2018-08-06T22:28:44.658Z,22.70
2018-08-06T22:31:12.116Z,22.70
2018-08-06T22:33:39.690Z,22.70
2018-08-06T22:36:07.255Z,22.70
2018-08-06T22:38:34.816Z,22.60
2018-08-06T22:41:02.268Z,22.60
2018-08-06T22:43:29.737Z,22.50
2018-08-06T22:45:57.183Z,22.60
2018-08-06T22:48:24.643Z,22.60
2018-08-06T22:50:52.128Z,22.50
2018-08-06T22:53:19.691Z,22.40
2018-08-06T22:55:47.258Z,22.30
2018-08-06T22:58:14.705Z,22.40
2018-08-06T23:00:42.178Z,22.30
2018-08-06T23:03:09.622Z,22.40
2018-08-06T23:05:37.097Z,22.30
2018-08-06T23:08:04.667Z,22.20
2018-08-06T23:10:32.139Z,22.20
2018-08-06T23:13:00.417Z,22.20
2018-08-06T23:15:28.640Z,22.20
2018-08-06T23:17:56.172Z,22.20
2018-08-06T23:20:23.613Z,22.20
2018-08-06T23:22:51.183Z,22.10
2018-08-06T23:25:18.639Z,22.20
2018-08-06T23:27:46.208Z,22.20
2018-08-06T23:30:13.664Z,22.30
2018-08-06T23:32:41.111Z,22.20
2018-08-06T23:35:08.592Z,22.20
2018-08-06T23:37:36.155Z,22.00
2018-08-06T23:40:03.720Z,21.90
2018-08-06T23:42:31.282Z,21.90
2018-08-06T23:44:58.861Z,21.90
2018-08-06T23:47:27.092Z,21.70
2018-08-06T23:49:54.547Z,21.60
2018-08-06T23:52:22.063Z,21.70
2018-08-06T23:54:49.519Z,21.80
2018-08-06T23:57:16.997Z,21.80
2018-08-06T23:59:44.544Z,21.80
